LTFJ/SAW METAR and TAF weather

Enter ICAO airport designator
Station Type Date Time Source
LTFJ METAR 2024/07/23 18:20 UTC NOAA

LTFJ 231820Z 04010KT 9999 FEW035 SCT180 27/22 Q1010 NOSIG


Station Type Date Time Source
LTFJ Decoded METAR 2024/07/23 18:20 UTC NOAA

Istanbul / Sabiha Gokcen, Turkey (LTFJ) 40-53-55N 029-18-33E
Jul 23, 2024 - 02:20 PM EDT / 2024.07.23 1820 UTC
Wind: from the NE (040 degrees) at 12 MPH (10 KT):0
Visibility: greater than 7 mile(s):0
Sky conditions: partly cloudy
Temperature: 80 F (27 C)
Dew Point: 71 F (22 C)
Relative Humidity: 74%
Pressure (altimeter): 29.83 in. Hg (1010 hPa)
ob: LTFJ 231820Z 04010KT 9999 FEW035 SCT180 27/22 Q1010 NOSIG
cycle: 18

Station Type Date Time Source
LTFJ TAF 2024/07/23 18:03 UTC NOAA